Time;durP1;ratioP1;P1;durP2;ratioP2;P2;SDS_P1;SDS_P2;PMS_P1;PMS_P2;Temp;Humidity;BMP_temperature;BMP_pressure;BME280_temperature;BME280_humidity;BME280_pressure;Samples;Min_cycle;Max_cycle;Signal;HPM_P1;HPM_P2
2022/12/06 00:02:12;;;;;;;19.25;10.80;;;1.20;99.90;;;;;;5056746;28;20044;-73
2022/12/06 00:04:38;;;;;;;17.05;10.13;;;1.10;99.90;;;;;;5055505;28;20045;-66
2022/12/06 00:07:04;;;;;;;20.60;11.27;;;1.00;99.90;;;;;;5056505;28;20037;-68
2022/12/06 00:09:31;;;;;;;20.02;11.90;;;0.90;99.90;;;;;;5056586;28;20040;-67
2022/12/06 00:11:58;;;;;;;20.45;10.88;;;0.90;99.90;;;;;;5055303;28;20044;-66
2022/12/06 00:14:25;;;;;;;22.42;11.75;;;1.00;99.90;;;;;;5054515;28;20046;-69
2022/12/06 00:16:51;;;;;;;20.50;11.25;;;0.90;99.90;;;;;;5035751;28;20144;-68
2022/12/06 00:19:19;;;;;;;16.90;9.52;;;0.90;99.90;;;;;;5035723;28;20049;-67
2022/12/06 00:21:46;;;;;;;19.92;10.82;;;0.90;99.90;;;;;;5035785;28;20488;-67
2022/12/06 00:24:20;;;;;;;19.63;9.98;;;0.80;99.90;;;;;;5036519;28;20033;-70
2022/12/06 00:26:48;;;;;;;19.92;10.10;;;0.80;99.90;;;;;;5036390;28;20067;-74
2022/12/06 00:29:20;;;;;;;17.45;9.60;;;0.80;99.90;;;;;;5036618;28;20049;-74
2022/12/06 00:31:46;;;;;;;16.15;8.55;;;0.80;99.90;;;;;;5036062;28;20029;-75
2022/12/06 00:34:12;;;;;;;14.65;8.65;;;0.90;99.90;;;;;;5035422;28;20041;-73
2022/12/06 00:36:39;;;;;;;18.48;9.80;;;0.90;99.90;;;;;;5036378;28;20128;-67
2022/12/06 00:39:08;;;;;;;16.42;8.95;;;0.90;99.90;;;;;;5034977;28;20038;-67
2022/12/06 00:41:34;;;;;;;17.95;7.97;;;1.00;99.90;;;;;;5036216;28;20033;-66
2022/12/06 00:44:00;;;;;;;15.55;8.82;;;1.00;99.90;;;;;;5036258;28;20041;-75
2022/12/06 00:46:28;;;;;;;17.48;9.43;;;1.10;99.90;;;;;;5036247;28;20033;-74
2022/12/06 00:48:55;;;;;;;22.75;11.20;;;1.10;99.90;;;;;;5035933;28;20030;-67
2022/12/06 00:51:22;;;;;;;20.95;10.85;;;1.00;99.90;;;;;;5035966;28;20095;-73
2022/12/06 00:53:48;;;;;;;21.15;11.90;;;1.00;99.90;;;;;;5036104;28;20493;-67
2022/12/06 00:56:15;;;;;;;21.20;11.43;;;1.00;99.90;;;;;;5035759;28;20048;-68
2022/12/06 00:58:41;;;;;;;16.45;9.77;;;0.90;99.90;;;;;;5035942;28;20037;-67
2022/12/06 01:01:08;;;;;;;20.05;11.32;;;0.80;99.90;;;;;;5035792;28;20071;-67
2022/12/06 01:03:34;;;;;;;19.42;10.10;;;0.90;99.90;;;;;;5035683;28;20036;-73
2022/12/06 01:06:04;;;;;;;17.38;10.38;;;0.90;99.90;;;;;;5035711;28;20049;-67
2022/12/06 01:08:30;;;;;;;17.50;10.18;;;1.10;99.90;;;;;;5035603;28;20037;-73
2022/12/06 01:10:56;;;;;;;17.10;10.13;;;1.10;99.90;;;;;;5035659;28;20091;-69
2022/12/06 01:13:22;;;;;;;18.88;9.80;;;1.10;99.90;;;;;;5034206;28;20048;-67
2022/12/06 01:15:48;;;;;;;20.45;9.77;;;1.10;99.90;;;;;;5035276;28;20416;-67
2022/12/06 01:18:14;;;;;;;17.67;10.05;;;0.90;99.90;;;;;;5035474;28;20067;-67
2022/12/06 01:20:39;;;;;;;15.55;9.07;;;0.60;99.90;;;;;;5035273;28;20092;-67
2022/12/06 01:23:05;;;;;;;16.48;9.35;;;0.40;99.90;;;;;;5035114;28;20091;-67
2022/12/06 01:25:31;;;;;;;18.27;9.55;;;0.30;99.90;;;;;;5035284;28;20120;-66
2022/12/06 01:27:58;;;;;;;17.92;9.65;;;0.30;99.90;;;;;;5035407;28;20500;-66
2022/12/06 01:30:24;;;;;;;20.75;10.43;;;0.30;99.90;;;;;;5035210;28;20047;-69
2022/12/06 01:32:50;;;;;;;19.48;10.00;;;0.40;99.90;;;;;;5035134;28;20103;-74
2022/12/06 01:35:16;;;;;;;19.67;9.93;;;0.70;99.90;;;;;;5046626;28;20044;-67
2022/12/06 01:37:42;;;;;;;23.42;11.77;;;0.80;99.90;;;;;;5054902;28;20037;-72
2022/12/06 01:40:09;;;;;;;20.40;10.48;;;0.90;99.90;;;;;;5053532;28;20041;-75
2022/12/06 01:42:34;;;;;;;18.33;10.35;;;1.00;99.90;;;;;;5054911;28;20507;-66
2022/12/06 01:45:00;;;;;;;21.35;11.77;;;1.10;99.90;;;;;;5053308;28;20048;-72
2022/12/06 01:47:33;;;;;;;20.00;10.43;;;1.20;99.90;;;;;;5054716;28;20037;-72
2022/12/06 01:50:02;;;;;;;20.67;10.85;;;1.20;99.90;;;;;;5054718;28;20095;-67
2022/12/06 01:53:08;;;;;;;18.85;11.07;;;1.20;99.90;;;;;;5054745;28;20033;-73
2022/12/06 01:55:37;;;;;;;19.90;10.52;;;1.10;99.90;;;;;;5049651;28;20186;-67
2022/12/06 01:58:12;;;;;;;18.88;10.00;;;1.00;99.90;;;;;;5053294;28;20053;-74
2022/12/06 02:00:37;;;;;;;19.13;9.23;;;1.00;99.90;;;;;;5054596;28;20036;-67
2022/12/06 02:03:08;;;;;;;17.67;9.45;;;1.00;99.90;;;;;;5053224;28;20035;-75
2022/12/06 02:05:37;;;;;;;16.98;8.32;;;1.00;99.90;;;;;;5053297;28;20049;-67
2022/12/06 02:08:03;;;;;;;15.65;8.05;;;1.20;99.90;;;;;;5054392;28;20037;-74
2022/12/06 02:10:30;;;;;;;15.38;7.88;;;1.10;99.90;;;;;;5053143;28;20029;-67
2022/12/06 02:12:58;;;;;;;17.38;9.13;;;1.10;99.90;;;;;;5054212;28;20063;-75
2022/12/06 02:15:47;;;;;;;15.02;7.28;;;1.10;99.90;;;;;;5054293;28;20086;-66
2022/12/06 02:18:24;;;;;;;14.38;7.75;;;1.20;99.90;;;;;;5051405;28;20122;-67
2022/12/06 02:21:05;;;;;;;12.35;7.07;;;1.20;99.90;;;;;;5053737;28;20519;-66
2022/12/06 02:23:31;;;;;;;;;;;1.20;99.90;;;;;;5053398;28;20037;-67
2022/12/06 02:26:05;;;;;;;15.40;8.05;;;1.10;99.90;;;;;;5054165;28;20077;-67
2022/12/06 02:28:56;;;;;;;13.25;7.85;;;1.20;99.90;;;;;;5053706;28;20037;-67
2022/12/06 02:31:37;;;;;;;18.10;8.23;;;1.20;99.90;;;;;;5053496;28;20044;-67
2022/12/06 02:34:11;;;;;;;;;;;1.20;99.90;;;;;;5054598;28;20507;-74
2022/12/06 02:36:49;;;;;;;14.65;8.07;;;1.20;99.90;;;;;;5053969;28;19956;-67
2022/12/06 02:39:23;;;;;;;17.65;8.73;;;1.10;99.90;;;;;;5053726;28;20539;-68
2022/12/06 02:42:03;;;;;;;16.33;8.88;;;1.10;99.90;;;;;;5054070;28;20048;-67
2022/12/06 02:44:38;;;;;;;15.10;7.95;;;1.10;99.90;;;;;;5053984;28;20082;-66
2022/12/06 02:47:07;;;;;;;11.43;6.15;;;1.10;99.90;;;;;;5052690;28;20496;-67
2022/12/06 02:49:37;;;;;;;12.98;7.57;;;1.00;99.90;;;;;;5053751;28;20045;-73
2022/12/06 02:52:03;;;;;;;14.68;8.10;;;0.80;99.90;;;;;;5053813;28;20037;-73
2022/12/06 02:54:30;;;;;;;16.13;8.50;;;0.80;99.90;;;;;;5053821;28;20048;-70
2022/12/06 02:56:55;;;;;;;12.27;7.35;;;0.80;99.90;;;;;;5056788;28;20044;-76
2022/12/06 02:59:21;;;;;;;13.57;7.68;;;0.80;99.90;;;;;;5058045;28;20029;-67
2022/12/06 03:01:51;;;;;;;15.07;8.10;;;0.80;99.90;;;;;;5057967;28;20048;-68
2022/12/06 03:04:45;;;;;;;14.80;7.03;;;0.80;99.90;;;;;;5057765;28;20102;-67
2022/12/06 03:07:28;;;;;;;13.35;6.63;;;0.70;99.90;;;;;;5057812;28;20124;-76
2022/12/06 03:10:09;;;;;;;13.02;7.05;;;0.80;99.90;;;;;;5056544;28;20424;-75
2022/12/06 03:12:53;;;;;;;12.43;7.00;;;0.90;99.90;;;;;;5053263;28;20049;-74
2022/12/06 03:15:25;;;;;;;13.52;7.03;;;0.80;99.90;;;;;;5042175;28;20041;-67
2022/12/06 03:17:57;;;;;;;12.85;7.32;;;0.80;99.90;;;;;;5034695;28;20069;-75
2022/12/06 03:20:25;;;;;;;12.25;6.80;;;0.70;99.90;;;;;;5035933;28;20045;-75
2022/12/06 03:22:58;;;;;;;14.73;6.40;;;0.80;99.90;;;;;;5037709;28;20441;-66
2022/12/06 03:25:25;;;;;;;15.25;7.15;;;0.70;99.90;;;;;;5037608;28;20037;-66
2022/12/06 03:27:52;;;;;;;13.75;6.80;;;0.70;99.90;;;;;;5037656;28;20041;-67
2022/12/06 03:30:18;;;;;;;11.30;5.90;;;0.50;99.90;;;;;;5037405;28;20055;-72
2022/12/06 03:32:47;;;;;;;12.65;6.68;;;0.60;99.90;;;;;;5037200;28;20026;-67
2022/12/06 03:35:19;;;;;;;11.52;6.88;;;0.80;99.90;;;;;;5037419;28;20503;-71
2022/12/06 03:37:50;;;;;;;14.80;6.38;;;0.80;99.90;;;;;;5069258;28;20100;-67
2022/12/06 03:40:20;;;;;;;11.32;6.82;;;0.80;99.90;;;;;;5037425;28;20029;-68
2022/12/06 03:42:47;;;;;;;14.95;7.55;;;0.80;99.90;;;;;;5037382;28;20037;-75
2022/12/06 03:45:13;;;;;;;12.27;6.95;;;0.80;99.90;;;;;;5037184;28;20039;-76
2022/12/06 03:47:57;;;;;;;12.77;6.28;;;0.70;99.90;;;;;;5055941;28;20041;-67
2022/12/06 03:50:49;;;;;;;12.93;7.05;;;0.60;99.90;;;;;;5057070;28;20045;-67
2022/12/06 03:53:19;;;;;;;12.63;6.78;;;0.50;99.90;;;;;;5056980;28;20040;-66
2022/12/06 03:55:45;;;;;;;12.38;6.45;;;0.50;99.90;;;;;;5056923;28;20112;-68
2022/12/06 03:58:11;;;;;;;12.10;6.75;;;0.60;99.90;;;;;;5056752;28;20132;-66
2022/12/06 04:00:37;;;;;;;14.57;6.63;;;0.60;99.90;;;;;;5056721;28;20407;-73
2022/12/06 04:03:03;;;;;;;11.65;7.22;;;0.30;99.90;;;;;;5056903;28;20128;-76
2022/12/06 04:05:28;;;;;;;13.88;7.00;;;0.30;99.90;;;;;;5056661;28;20515;-66
2022/12/06 04:07:54;;;;;;;16.55;8.30;;;0.40;99.90;;;;;;5056601;28;20361;-68
2022/12/06 04:10:20;;;;;;;12.35;6.97;;;0.60;99.90;;;;;;5056529;28;20435;-76
2022/12/06 04:13:01;;;;;;;14.38;8.30;;;0.80;99.90;;;;;;5056372;28;20037;-72
2022/12/06 04:15:29;;;;;;;16.23;8.25;;;0.80;99.90;;;;;;5056552;28;20057;-73
2022/12/06 04:18:14;;;;;;;13.60;7.57;;;0.90;99.90;;;;;;5056504;28;20133;-76
2022/12/06 04:23:41;;;;;;;12.98;7.38;;;0.90;99.90;;;;;;5056456;28;20460;-67
2022/12/06 04:26:09;;;;;;;12.10;6.43;;;0.90;99.90;;;;;;5056423;28;20102;-73
2022/12/06 04:39:33;;;;;;;19.92;8.23;;;0.50;99.90;;;;;;5056075;28;20047;-76
2022/12/06 04:44:43;;;;;;;15.30;8.13;;;0.50;99.90;;;;;;5055952;28;20036;-76
2022/12/06 04:47:09;;;;;;;16.70;8.18;;;0.50;99.90;;;;;;5055896;28;20021;-67
2022/12/06 04:49:36;;;;;;;16.83;8.15;;;0.50;99.90;;;;;;5055884;28;20043;-68
2022/12/06 04:52:03;;;;;;;18.70;8.95;;;0.50;99.90;;;;;;5055795;28;20380;-67
2022/12/06 04:54:29;;;;;;;15.38;8.50;;;0.70;99.90;;;;;;5055656;28;20147;-66
2022/12/06 04:56:56;;;;;;;17.25;8.63;;;0.60;99.90;;;;;;5055757;28;20048;-68
2022/12/06 04:59:22;;;;;;;15.00;8.30;;;0.70;99.90;;;;;;5055734;28;20048;-76
2022/12/06 05:01:48;;;;;;;15.27;8.38;;;0.60;99.90;;;;;;5055753;28;20032;-66
2022/12/06 05:04:14;;;;;;;11.68;6.90;;;0.50;99.90;;;;;;5054291;28;20094;-77
2022/12/06 05:06:39;;;;;;;15.23;7.57;;;0.60;99.90;;;;;;5054269;28;20041;-66
2022/12/06 05:09:05;;;;;;;13.85;7.20;;;0.70;99.90;;;;;;5054030;28;20041;-70
2022/12/06 05:11:31;;;;;;;14.10;7.43;;;0.60;99.90;;;;;;5055496;28;20128;-66
2022/12/06 05:13:58;;;;;;;13.82;7.72;;;0.40;99.90;;;;;;5055392;28;20052;-67
2022/12/06 05:16:23;;;;;;;15.77;7.65;;;0.40;99.90;;;;;;5055321;28;20086;-76
2022/12/06 05:18:49;;;;;;;15.13;7.75;;;0.50;99.90;;;;;;5053595;28;20044;-67
2022/12/06 05:21:21;;;;;;;15.48;7.82;;;0.60;99.90;;;;;;5055396;28;20061;-77
2022/12/06 05:23:47;;;;;;;15.00;7.20;;;0.60;99.90;;;;;;5055233;28;20174;-66
2022/12/06 05:26:16;;;;;;;14.82;7.70;;;0.70;99.90;;;;;;5055385;28;20044;-77
2022/12/06 05:28:43;;;;;;;14.30;7.85;;;0.50;99.90;;;;;;5055264;28;20044;-66
2022/12/06 05:31:10;;;;;;;15.77;8.10;;;0.50;99.90;;;;;;5055111;28;20459;-77
2022/12/06 05:33:38;;;;;;;14.07;8.13;;;0.40;99.90;;;;;;5055065;28;20082;-76
2022/12/06 05:36:24;;;;;;;14.85;7.57;;;0.40;99.90;;;;;;5054878;28;20392;-69
2022/12/06 05:38:51;;;;;;;16.67;8.25;;;0.40;99.90;;;;;;5054958;28;20048;-66
2022/12/06 05:41:18;;;;;;;15.27;7.43;;;0.30;99.90;;;;;;5054907;28;20395;-67
2022/12/06 05:43:44;;;;;;;17.75;8.55;;;0.30;99.90;;;;;;5054876;28;20060;-66
2022/12/06 05:46:09;;;;;;;14.48;8.20;;;0.30;99.90;;;;;;5054882;28;20476;-67
2022/12/06 05:48:35;;;;;;;14.60;7.05;;;0.30;99.90;;;;;;5054830;28;20036;-66
2022/12/06 05:51:01;;;;;;;13.57;7.43;;;0.30;99.90;;;;;;5054669;28;20045;-67
2022/12/06 05:53:27;;;;;;;13.77;6.75;;;0.50;99.90;;;;;;5053414;28;20048;-66
2022/12/06 05:55:52;;;;;;;14.80;8.38;;;0.40;99.90;;;;;;5054544;28;20115;-77
2022/12/06 05:58:18;;;;;;;14.88;7.82;;;0.50;99.90;;;;;;5054673;28;20094;-76
2022/12/06 06:00:49;;;;;;;15.05;8.52;;;0.50;99.90;;;;;;5054787;28;20503;-73
2022/12/06 06:03:16;;;;;;;15.55;8.05;;;0.40;99.90;;;;;;5054432;28;20071;-69
2022/12/06 06:05:46;;;;;;;16.02;8.48;;;0.40;99.90;;;;;;5053951;28;20033;-70
2022/12/06 06:08:12;;;;;;;16.50;8.20;;;0.40;99.90;;;;;;5053218;28;20082;-74
2022/12/06 06:10:38;;;;;;;17.00;9.07;;;0.30;99.90;;;;;;5053182;28;20048;-66
2022/12/06 06:13:04;;;;;;;16.40;8.82;;;0.40;99.90;;;;;;5054074;28;20045;-67
2022/12/06 06:15:30;;;;;;;14.85;8.00;;;0.50;99.90;;;;;;5054217;28;20052;-69
2022/12/06 06:17:55;;;;;;;15.13;7.85;;;0.60;99.90;;;;;;5054015;28;20500;-67
2022/12/06 06:20:21;;;;;;;14.95;7.32;;;0.70;99.90;;;;;;5054207;28;20480;-66
2022/12/06 06:22:47;;;;;;;13.70;7.57;;;0.80;99.90;;;;;;5052914;28;20048;-73
2022/12/06 06:25:12;;;;;;;12.02;6.88;;;0.90;99.90;;;;;;5054178;28;20567;-66
2022/12/06 06:27:38;;;;;;;18.88;7.50;;;0.80;99.90;;;;;;5054026;28;20523;-67
2022/12/06 06:30:10;;;;;;;13.70;6.97;;;0.70;99.90;;;;;;5053437;28;20041;-77
2022/12/06 06:32:36;;;;;;;10.20;6.25;;;0.70;99.90;;;;;;5053739;28;20040;-70
2022/12/06 06:35:03;;;;;;;14.88;7.85;;;0.60;99.90;;;;;;5052709;28;20420;-77
2022/12/06 06:37:29;;;;;;;10.40;6.05;;;0.60;99.90;;;;;;5052432;28;20064;-77
2022/12/06 06:39:55;;;;;;;12.88;6.75;;;0.60;99.90;;;;;;5052549;28;20370;-75
2022/12/06 06:42:21;;;;;;;16.38;8.60;;;0.60;99.90;;;;;;5054005;28;20044;-66
2022/12/06 06:44:46;;;;;;;18.15;9.18;;;0.50;99.90;;;;;;5053954;28;20041;-77
2022/12/06 06:47:12;;;;;;;12.90;7.50;;;0.50;99.90;;;;;;5053629;28;20045;-66
2022/12/06 06:49:38;;;;;;;13.77;8.02;;;0.40;99.90;;;;;;5053848;28;20037;-66
2022/12/06 06:52:04;;;;;;;14.75;7.57;;;0.30;99.90;;;;;;5053904;28;20408;-67
2022/12/06 06:54:29;;;;;;;15.20;8.15;;;0.20;99.90;;;;;;5053893;28;20185;-76
2022/12/06 06:56:56;;;;;;;17.20;7.32;;;0.30;99.90;;;;;;5053382;28;20045;-66
2022/12/06 06:59:23;;;;;;;12.13;7.22;;;0.30;99.90;;;;;;5052474;28;20031;-66
2022/12/06 07:01:49;;;;;;;12.73;7.30;;;0.30;99.90;;;;;;5052924;28;20396;-67
2022/12/06 07:04:15;;;;;;;11.88;7.10;;;0.40;99.90;;;;;;5051371;28;20037;-73
2022/12/06 07:06:41;;;;;;;12.70;7.18;;;0.50;99.90;;;;;;5047932;28;20045;-74
2022/12/06 07:09:06;;;;;;;16.20;7.60;;;0.60;99.90;;;;;;5049807;28;20041;-72
2022/12/06 07:11:32;;;;;;;11.52;6.50;;;0.70;99.90;;;;;;5050429;28;20048;-76
2022/12/06 07:13:58;;;;;;;12.82;6.85;;;0.70;99.90;;;;;;5048683;28;20045;-74
2022/12/06 07:16:24;;;;;;;12.52;6.93;;;0.60;99.90;;;;;;5047672;28;20033;-67
2022/12/06 07:18:51;;;;;;;13.85;7.72;;;0.60;99.90;;;;;;5041464;28;20037;-75
2022/12/06 07:21:17;;;;;;;13.52;7.97;;;0.50;99.90;;;;;;5012859;28;20468;-66
2022/12/06 07:23:43;;;;;;;15.15;7.97;;;0.50;99.90;;;;;;5029960;28;20117;-75
2022/12/06 07:26:14;;;;;;;14.00;6.70;;;0.60;99.90;;;;;;5064711;28;20037;-72
2022/12/06 07:28:42;;;;;;;15.63;7.53;;;0.60;99.90;;;;;;5033395;28;20056;-75
2022/12/06 07:31:11;;;;;;;16.42;7.90;;;0.70;99.90;;;;;;5033915;28;20022;-66
2022/12/06 07:33:38;;;;;;;14.80;8.18;;;0.60;99.90;;;;;;5032911;28;20049;-74
2022/12/06 07:36:04;;;;;;;16.88;7.63;;;0.70;99.90;;;;;;5032031;28;20454;-68
2022/12/06 07:38:30;;;;;;;14.40;7.50;;;0.90;99.90;;;;;;5033822;28;20041;-67
2022/12/06 07:44:59;;;;;;;12.98;7.03;;;1.10;99.90;;;;;;5032329;28;20128;-74
2022/12/06 07:46:38;;;;;;;13.13;7.03;;;1.40;99.90;;;;;;5037170;28;20044;-74
2022/12/06 07:49:04;;;;;;;14.75;7.55;;;1.50;99.90;;;;;;5037065;28;20041;-73
2022/12/06 07:51:30;;;;;;;13.52;7.50;;;1.60;99.90;;;;;;5037019;28;20424;-67
2022/12/06 07:53:56;;;;;;;14.48;6.85;;;1.70;99.90;;;;;;5036883;28;20041;-70
2022/12/06 07:56:22;;;;;;;22.92;11.75;;;2.00;99.90;;;;;;5035616;28;20049;-72
2022/12/06 07:58:48;;;;;;;54.75;24.10;;;2.10;99.90;;;;;;5037005;28;20090;-71
2022/12/06 08:01:14;;;;;;;56.72;24.23;;;2.10;99.90;;;;;;5035762;28;20132;-72
2022/12/06 08:03:39;;;;;;;40.10;17.55;;;2.10;99.90;;;;;;5036941;28;20038;-72
2022/12/06 08:06:07;;;;;;;23.63;10.70;;;2.20;99.90;;;;;;5036866;28;20033;-71
2022/12/06 08:08:33;;;;;;;28.98;14.32;;;2.40;99.90;;;;;;5036918;28;20033;-70
2022/12/06 08:11:03;;;;;;;32.00;14.88;;;2.50;99.90;;;;;;5036877;28;20524;-71
2022/12/06 08:13:29;;;;;;;27.83;14.35;;;2.70;99.90;;;;;;5036637;28;20033;-71
2022/12/06 08:15:55;;;;;;;28.30;14.45;;;2.80;99.90;;;;;;5036590;28;20077;-71
2022/12/06 08:18:21;;;;;;;22.08;10.35;;;2.90;99.90;;;;;;5052810;28;20075;-71
2022/12/06 08:20:47;;;;;;;17.48;8.88;;;2.80;99.90;;;;;;5056401;28;20025;-70
2022/12/06 08:23:13;;;;;;;13.90;8.10;;;2.90;99.90;;;;;;5056620;28;20045;-71
2022/12/06 08:25:39;;;;;;;24.80;13.52;;;3.10;99.90;;;;;;5056529;28;20511;-71
2022/12/06 08:28:05;;;;;;;21.52;11.70;;;3.20;99.90;;;;;;5056449;28;20037;-71
2022/12/06 08:30:31;;;;;;;29.38;17.15;;;3.40;99.90;;;;;;5056367;28;20041;-70
2022/12/06 08:32:56;;;;;;;19.85;10.70;;;3.40;99.90;;;;;;5056203;28;20417;-71
2022/12/06 08:35:23;;;;;;;20.20;9.93;;;3.40;99.90;;;;;;5056019;28;20033;-70
2022/12/06 08:37:48;;;;;;;15.68;8.90;;;3.00;99.90;;;;;;5056079;28;20128;-67
2022/12/06 08:40:14;;;;;;;17.80;9.70;;;3.00;99.90;;;;;;5054954;28;20040;-67
2022/12/06 08:42:44;;;;;;;15.45;8.35;;;3.30;99.90;;;;;;5055972;28;20040;-71
2022/12/06 08:45:10;;;;;;;13.60;7.43;;;3.60;99.90;;;;;;5055983;28;20040;-71
2022/12/06 08:47:36;;;;;;;12.07;7.50;;;3.80;99.90;;;;;;5054740;28;20047;-71
2022/12/06 08:50:02;;;;;;;13.95;6.90;;;4.00;99.90;;;;;;5054044;28;20434;-71
2022/12/06 08:52:28;;;;;;;11.32;6.38;;;3.70;99.90;;;;;;5055883;28;20526;-68
2022/12/06 08:54:54;;;;;;;9.57;6.03;;;4.00;99.90;;;;;;5054898;28;20037;-70
2022/12/06 08:57:19;;;;;;;8.68;5.50;;;3.90;99.90;;;;;;5055805;28;20059;-72
2022/12/06 08:59:45;;;;;;;11.15;6.57;;;4.00;99.90;;;;;;5055946;28;20119;-72
2022/12/06 09:02:12;;;;;;;10.18;5.78;;;4.10;99.90;;;;;;5055799;28;20064;-73
2022/12/06 09:04:37;;;;;;;10.10;5.75;;;4.00;99.90;;;;;;5055605;28;20080;-73
2022/12/06 09:07:03;;;;;;;9.90;5.65;;;4.30;99.90;;;;;;5054880;28;20504;-72
2022/12/06 09:09:29;;;;;;;9.32;5.55;;;4.70;99.90;;;;;;5053657;28;20115;-69
2022/12/06 09:11:55;;;;;;;8.82;5.30;;;4.40;99.90;;;;;;5052505;28;20132;-68
2022/12/06 09:14:21;;;;;;;14.32;8.73;;;4.40;99.90;;;;;;5053864;28;20048;-69
2022/12/06 09:16:47;;;;;;;24.42;11.23;;;4.90;99.90;;;;;;5054668;28;20113;-73
2022/12/06 09:19:14;;;;;;;25.10;13.07;;;4.90;99.90;;;;;;5054065;28;20472;-71
2022/12/06 09:21:45;;;;;;;19.85;12.18;;;5.00;99.90;;;;;;5055301;28;20028;-74
2022/12/06 09:24:13;;;;;;;13.30;7.63;;;5.00;99.90;;;;;;5055505;28;20041;-68
2022/12/06 09:26:39;;;;;;;18.75;9.63;;;4.80;99.90;;;;;;5055376;28;20555;-73
2022/12/06 09:29:05;;;;;;;15.38;9.77;;;4.60;99.90;;;;;;5055405;28;20033;-73
2022/12/06 09:31:31;;;;;;;16.90;9.88;;;4.60;99.90;;;;;;5055196;28;20071;-72
2022/12/06 09:33:56;;;;;;;23.27;11.98;;;4.80;99.90;;;;;;5055133;28;20045;-74
2022/12/06 09:36:27;;;;;;;27.23;13.48;;;5.00;99.90;;;;;;5055079;28;20037;-68
2022/12/06 09:38:58;;;;;;;;;;;5.00;99.90;;;;;;5055651;28;20057;-72
2022/12/06 09:41:27;;;;;;;29.63;15.43;;;5.00;99.90;;;;;;5055110;28;19908;-72
2022/12/06 09:44:02;;;;;;;26.27;13.70;;;4.90;99.90;;;;;;5054880;28;20579;-73
2022/12/06 09:46:53;;;;;;;26.23;12.73;;;4.90;99.90;;;;;;5054732;28;20373;-72
2022/12/06 09:49:31;;;;;;;38.53;16.33;;;4.90;99.90;;;;;;5054780;28;20056;-67
2022/12/06 09:52:15;;;;;;;27.13;15.27;;;4.70;99.90;;;;;;5054912;28;20033;-67
2022/12/06 09:54:57;;;;;;;68.35;30.10;;;4.70;99.90;;;;;;5054749;28;20045;-67
2022/12/06 09:57:52;;;;;;;31.85;17.23;;;4.80;99.90;;;;;;5054796;28;20393;-67
2022/12/06 10:00:21;;;;;;;20.27;11.38;;;4.70;99.90;;;;;;5053751;28;20064;-67
2022/12/06 10:03:02;;;;;;;19.05;10.77;;;4.70;99.90;;;;;;5053229;28;20048;-67
2022/12/06 10:06:00;;;;;;;18.20;9.70;;;5.00;99.90;;;;;;5054406;28;20511;-67
2022/12/06 10:08:53;;;;;;;17.40;10.65;;;5.20;99.90;;;;;;5054630;28;20032;-67
2022/12/06 10:11:22;;;;;;;16.05;8.88;;;5.00;99.90;;;;;;5054374;28;20444;-67
2022/12/06 10:14:08;;;;;;;17.30;9.65;;;5.20;99.90;;;;;;5054362;28;20090;-67
2022/12/06 10:16:58;;;;;;;17.23;9.20;;;5.60;99.90;;;;;;5054527;28;20045;-67
2022/12/06 10:20:02;;;;;;;19.05;11.30;;;5.90;99.90;;;;;;5054366;28;20037;-70
2022/12/06 10:22:55;;;;;;;15.73;9.45;;;6.30;99.90;;;;;;5054199;28;20492;-67
2022/12/06 10:25:31;;;;;;;15.07;9.63;;;6.20;99.90;;;;;;5053787;28;20446;-67
2022/12/06 10:28:20;;;;;;;19.52;11.25;;;6.20;99.90;;;;;;5053496;28;20041;-67
2022/12/06 10:30:52;;;;;;;15.65;9.35;;;6.30;99.90;;;;;;5047580;28;20044;-67
2022/12/06 10:33:20;;;;;;;12.90;8.25;;;6.30;99.90;;;;;;5051688;28;20396;-68
2022/12/06 10:36:00;;;;;;;13.40;8.43;;;6.10;99.90;;;;;;5052780;28;20036;-67
2022/12/06 10:38:40;;;;;;;12.30;8.10;;;6.20;99.90;;;;;;5054032;28;20041;-73
2022/12/06 10:41:33;;;;;;;13.32;7.57;;;6.30;99.90;;;;;;5054025;28;20037;-67
2022/12/06 10:44:16;;;;;;;11.60;7.15;;;6.40;99.90;;;;;;5054025;28;20049;-67
2022/12/06 10:47:02;;;;;;;12.90;7.80;;;6.20;99.90;;;;;;5053899;28;20040;-74
2022/12/06 10:49:47;;;;;;;17.17;10.38;;;6.40;99.90;;;;;;5053354;28;20036;-73
2022/12/06 10:52:25;;;;;;;16.55;8.43;;;5.90;99.90;;;;;;5053965;28;20127;-68
2022/12/06 10:55:15;;;;;;;19.10;10.95;;;5.80;99.90;;;;;;5053986;28;20033;-68
2022/12/06 10:58:05;;;;;;;16.38;9.60;;;5.50;99.90;;;;;;5053877;28;20079;-75
2022/12/06 11:00:51;;;;;;;21.42;12.80;;;5.60;99.90;;;;;;5053919;28;20067;-68
2022/12/06 11:03:41;;;;;;;15.02;8.10;;;5.70;99.90;;;;;;5053836;28;20132;-68
2022/12/06 11:06:15;;;;;;;21.10;10.65;;;5.10;99.90;;;;;;5053825;28;20035;-67
2022/12/06 11:08:44;;;;;;;18.38;10.93;;;4.60;99.90;;;;;;5053888;28;20411;-71
2022/12/06 11:11:16;;;;;;;17.33;9.88;;;4.60;99.90;;;;;;5053758;28;20120;-68
2022/12/06 11:13:53;;;;;;;12.68;7.78;;;4.70;99.90;;;;;;5053546;28;20480;-72
2022/12/06 11:16:36;;;;;;;9.73;6.40;;;4.50;99.90;;;;;;5054090;28;20044;-68
2022/12/06 11:19:41;;;;;;;10.20;6.45;;;4.60;99.90;;;;;;5057736;28;20037;-68
2022/12/06 11:22:44;;;;;;;9.65;5.85;;;4.80;99.90;;;;;;5054162;28;20492;-71
2022/12/06 11:25:27;;;;;;;11.73;6.82;;;4.70;99.90;;;;;;5053756;28;20166;-70
2022/12/06 11:28:04;;;;;;;10.35;7.32;;;4.30;99.90;;;;;;5057110;28;20048;-68
2022/12/06 11:30:32;;;;;;;10.98;6.57;;;4.10;99.90;;;;;;5057160;28;20376;-68
2022/12/06 11:33:00;;;;;;;10.57;6.47;;;4.30;99.90;;;;;;5057222;28;20144;-69
2022/12/06 11:35:27;;;;;;;10.80;6.22;;;4.40;99.90;;;;;;5057295;28;20033;-68
2022/12/06 11:37:58;;;;;;;10.40;6.95;;;4.30;99.90;;;;;;5055542;28;20194;-68
2022/12/06 11:40:29;;;;;;;;;;;4.30;99.90;;;;;;5056149;28;20033;-68
2022/12/06 11:42:57;;;;;;;10.98;6.38;;;4.30;99.90;;;;;;5052113;28;19991;-68
2022/12/06 11:45:38;;;;;;;8.88;5.65;;;4.30;99.90;;;;;;5054453;28;20687;-68
2022/12/06 11:48:20;;;;;;;9.05;5.63;;;4.40;99.90;;;;;;5054066;28;20079;-68
2022/12/06 11:50:48;;;;;;;12.68;6.63;;;4.50;99.90;;;;;;5053796;28;20419;-68
2022/12/06 11:53:24;;;;;;;9.75;6.07;;;4.40;99.90;;;;;;5053892;28;20665;-67
2022/12/06 11:55:53;;;;;;;12.75;6.13;;;4.40;99.90;;;;;;5054925;28;20037;-68
2022/12/06 11:58:40;;;;;;;10.30;5.68;;;4.30;99.90;;;;;;5055154;28;20499;-69
2022/12/06 12:01:13;;;;;;;12.07;6.80;;;4.30;99.90;;;;;;5055851;28;20507;-68
2022/12/06 12:03:41;;;;;;;9.27;5.40;;;4.30;99.90;;;;;;5055674;28;20094;-68
2022/12/06 12:06:20;;;;;;;9.25;5.63;;;4.30;99.90;;;;;;5054661;28;20412;-68
2022/12/06 12:09:05;;;;;;;9.65;5.72;;;4.20;99.90;;;;;;5054407;28;20051;-70
2022/12/06 12:11:33;;;;;;;10.05;5.57;;;4.20;99.90;;;;;;5052973;28;20397;-68
2022/12/06 12:14:22;;;;;;;11.40;5.85;;;4.20;99.90;;;;;;5055778;28;20198;-68
2022/12/06 12:16:52;;;;;;;9.25;5.72;;;4.20;99.90;;;;;;5052715;28;20053;-68
2022/12/06 12:19:42;;;;;;;8.73;5.45;;;4.20;99.90;;;;;;5053231;28;20041;-69
2022/12/06 12:22:20;;;;;;;8.53;5.07;;;4.20;99.90;;;;;;5053126;28;20480;-68
2022/12/06 12:24:49;;;;;;;8.93;4.75;;;4.10;99.90;;;;;;5055677;28;20282;-70
2022/12/06 12:27:33;;;;;;;8.93;5.45;;;4.20;99.90;;;;;;5053269;28;20041;-68
2022/12/06 12:30:22;;;;;;;7.60;4.38;;;4.10;99.90;;;;;;5052568;28;20087;-68
2022/12/06 12:32:51;;;;;;;10.93;5.20;;;4.10;99.90;;;;;;5053962;28;20041;-68
2022/12/06 12:35:20;;;;;;;10.25;5.60;;;4.10;99.90;;;;;;5053908;28;20045;-70
2022/12/06 12:37:52;;;;;;;11.32;5.65;;;4.00;99.90;;;;;;5053789;28;20056;-68
2022/12/06 12:40:24;;;;;;;11.52;5.75;;;4.10;99.90;;;;;;5053281;28;20094;-68
2022/12/06 12:43:03;;;;;;;9.35;5.20;;;4.10;99.90;;;;;;5050840;28;20431;-68
2022/12/06 12:45:29;;;;;;;7.95;4.72;;;4.10;99.90;;;;;;5053653;28;20037;-68
2022/12/06 12:48:21;;;;;;;9.15;5.30;;;4.10;99.90;;;;;;5054031;28;20094;-68
2022/12/06 12:50:58;;;;;;;10.30;5.53;;;4.00;99.90;;;;;;5053384;28;20488;-68
2022/12/06 12:53:36;;;;;;;15.27;5.25;;;4.10;99.90;;;;;;5053685;28;20076;-68
2022/12/06 12:56:16;;;;;;;10.88;5.18;;;4.10;99.90;;;;;;5053705;28;20033;-68
2022/12/06 12:58:45;;;;;;;8.27;4.45;;;4.00;99.90;;;;;;5053925;28;20408;-70
2022/12/06 13:01:23;;;;;;;8.07;4.93;;;4.00;99.90;;;;;;5053081;28;20063;-68
2022/12/06 13:04:05;;;;;;;9.70;5.68;;;4.00;99.90;;;;;;5053928;28;20045;-68
2022/12/06 13:06:43;;;;;;;10.32;5.45;;;3.90;99.90;;;;;;5055405;28;20091;-67
2022/12/06 13:09:33;;;;;;;12.70;4.75;;;3.80;99.90;;;;;;5054530;28;20504;-68
2022/12/06 13:12:05;;;;;;;9.40;5.05;;;3.70;99.90;;;;;;5062147;28;20076;-68
2022/12/06 13:14:33;;;;;;;9.32;5.05;;;3.60;99.90;;;;;;5053166;28;20041;-68
2022/12/06 13:17:04;;;;;;;10.98;5.53;;;3.60;99.90;;;;;;5053266;28;20385;-68
2022/12/06 13:19:37;;;;;;;8.57;4.72;;;3.50;99.90;;;;;;5051674;28;20449;-69
2022/12/06 13:22:04;;;;;;;9.73;5.88;;;3.50;99.90;;;;;;5053228;28;20069;-68
2022/12/06 13:24:31;;;;;;;9.15;5.22;;;3.40;99.90;;;;;;5053074;28;20547;-69
2022/12/06 13:27:04;;;;;;;8.98;4.80;;;3.30;99.90;;;;;;5053252;28;20060;-68
2022/12/06 13:29:34;;;;;;;9.40;5.40;;;3.30;99.90;;;;;;5052683;28;20496;-67